Pagrindinis puslapis
METAR-TAF:

METAR-TAF

Oro uostai :

Fort Smith, Šiaurės Vakarai, Kanada

platuma: 60-01N, ilguma: 111-57W, Aukštis: 203 m

Dabartinis oras

Ataskaita buvo paskelbta 52 minutes, ne 23:00 UTC
Vėjas 8 kt iš Šiaurės Rytų su gūsio iki 15 kt, svyruoja nuo Šiaurės ir Rytų
Temperatūra -9°C
Drėgmė 44%
Slėgis 1029 hPa
Matomumas: 24.1 km
Mažai debesys ne aukštis 4500 ft
Su prošvaistėmis ne aukštis 25000 ft

METAR: CYSM 302300Z 04008G15KT 010V080 15SM FEW045 BKN250 M09/M19 A3039 RMK CF1CI6 CF TR SLP316

Laikas: 17:52 (23:52 UTC)

Prognozė

Ataskaita buvo paskelbta 14 minutes, ne 23:38 UTC
Prognozė galioja nuo 31 metu 00 UTC su 31 metu 12 UTC
Vėjas 10 kt iš Šiaurės Rytų su gūsio iki 20 kt
Matomumas: 10 km
Mažai debesys ne aukštis 4000 ft
Su prošvaistėmis ne aukštis 25000 ft
Tapsmas
nuo 31 metu 06 UTC su 31 metu 08 UTC
Vėjas 5 kt iš Šiaurės Rytų

TAF: CYSM 302338Z 3100/3112 04010G20KT P6SM FEW040 BKN250 BECMG 3106/3108 04005KT RMK NXT FCST BY 310600Z

Orai ataskaitas ir orų prognozės (METAR, TAF).

turimą stotys yra geltonos ir raudonos taškus žemėlapyje.

Perkelti pele per norėdami pamatyti stoties vardą.

Tada spustelėkite, norėdami matyti oro stebėjimo ir prognozės.

Norėdami pakeisti žemėlapį: spustelėkite ant žalios mygtukų su juodo kryžiaus žemyn,; žalią mygtuką su brūkšneliu, jei norite nutolinti; arba žalių rodyklių gretimoms žemėlapius.


METAR-TAF: